Have a Safe July 4th! 

Flight Track Log - Related Links

Times and Time Zones

All times are in EDT time to prevent confusion due to time zone crossing. See the UAL1650 flight status page for this flight to view local times or setup timezone preferences in your user account.

Time Position Orientation Groundspeed Altitude Reporting Facility
EDT Latitude Longitude Course Direction KTS MPH feet Rate Location/Type
Tue 05:11:10 PM 39.8333 -104.7833 255° West 209 241 7,200  Level Denver TRACON
Tue 05:12:10 PM 39.8167 -104.8667 255° West 247 284 9,500 2,136 Climbing Denver TRACON
Tue 05:13:08 PM 39.7592 -104.9217 216° Southwest 270 311 11,400 2,000 Climbing Denver Center
Tue 05:14:10 PM 39.6783 -104.9192 179° South 297 342 13,500 2,081 Climbing Denver Center
Tue 05:15:12 PM 39.5742 -104.8900 168° South 359 413 15,700 2,226 Climbing Denver Center
Tue 05:16:14 PM 39.4761 -104.8628 168° South 362 417 18,100 2,419 Climbing Denver Center
Tue 05:17:16 PM 39.3647 -104.8303 167° South 380 437 20,700 2,341 Climbing Denver Center
Tue 05:18:17 PM 39.2606 -104.8014 168° South 383 441 22,900 1,951 Climbing Denver Center
Tue 05:19:19 PM 39.1561 -104.7697 167° South 391 450 24,700 1,694 Climbing Denver Center
Tue 05:20:21 PM 39.0483 -104.7386 167° South 400 460 26,400 1,694 Climbing Denver Center
Tue 05:21:23 PM 38.9394 -104.6942 162° South 411 473 28,200 1,935 Climbing Denver Center
Tue 05:22:25 PM 38.8089 -104.6375 161° South 408 470 30,400 1,984 Climbing Denver Center
Tue 05:23:27 PM 38.7036 -104.5944 162° South 401 461 32,300 1,258 Climbing Denver Center
Tue 05:24:29 PM 38.5981 -104.5508 162° South 400 460 33,000 341 Climbing Denver Center
Tue 05:25:30 PM 38.4933 -104.5081 162° South 396 456 33,000  Level Denver Center
Tue 05:26:32 PM 38.3872 -104.4653 162° South 399 459 33,000 242 Level Denver Center
Tue 05:27:34 PM 38.2639 -104.4058 159° South 412 474 33,500 1,016 Climbing Denver Center
Tue 05:28:36 PM 38.1700 -104.3286 147° Southeast 419 482 35,100 1,258 Climbing Denver Center
Tue 05:29:38 PM 38.0744 -104.2508 147° Southeast 423 487 36,100 871 Climbing Denver Center
Tue 05:30:40 PM 37.9600 -104.1589 148° Southeast 434 499 36,900 439 Climbing Denver Center
Tue 05:31:41 PM 37.8600 -104.0772 147° Southeast 443 510 37,000 49 Climbing Denver Center
Tue 05:32:43 PM 37.7400 -103.9811 148° Southeast 452 520 37,000  Level Denver Center
Tue 05:33:45 PM 37.6353 -103.8975 148° Southeast 455 524 37,000  Level Denver Center
Tue 05:34:47 PM 37.5317 -103.8150 148° Southeast 449 517 37,000  Level Denver Center
Tue 05:35:49 PM 37.4133 -103.7219 148° Southeast 445 512 37,000  Level Denver Center
Tue 05:36:51 PM 37.3128 -103.6425 148° Southeast 443 510 37,000  Level Denver Center
Tue 05:37:53 PM 37.1992 -103.5444 145° Southeast 443 510 37,000  Level Denver Center
Tue 05:38:55 PM 37.1089 -103.4458 139° Southeast 449 517 37,000  Level Denver Center
Tue 05:39:32 PM 37.0517 -103.3750 135° Southeast 452 520 37,000  Level Albuquerque Center
Tue 05:40:34 PM 36.9700 -103.2622 132° Southeast 455 524 37,000  Level Albuquerque Center
Tue 05:41:36 PM 36.8736 -103.1314 133° Southeast 457 526 37,000  Level Albuquerque Center
Tue 05:42:38 PM 36.7903 -103.0208 133° Southeast 457 526 37,000  Level Albuquerque Center
Tue 05:43:40 PM 36.6933 -102.8900 133° Southeast 458 527 37,000  Level Albuquerque Center
Tue 05:44:42 PM 36.6139 -102.7836 133° Southeast 460 529 37,000  Level Albuquerque Center
Tue 05:45:44 PM 36.5236 -102.6661 134° Southeast 467 537 37,000  Level Albuquerque Center
Tue 05:46:46 PM 36.4178 -102.5256 133° Southeast 466 536 37,000  Level Albuquerque Center
Tue 05:47:48 PM 36.3289 -102.4072 133° Southeast 467 537 37,000  Level Albuquerque Center
Tue 05:48:50 PM 36.2383 -102.2892 134° Southeast 470 541 37,000  Level Albuquerque Center
Tue 05:49:51 PM 36.1494 -102.1742 134° Southeast 466 536 37,000  Level Albuquerque Center
Tue 05:50:53 PM 36.0611 -102.0597 134° Southeast 462 532 37,000  Level Albuquerque Center
Tue 05:51:55 PM 35.9739 -101.9442 133° Southeast 460 529 37,000  Level Albuquerque Center
Tue 05:52:57 PM 35.8681 -101.8078 134° Southeast 459 528 37,000  Level Albuquerque Center
Tue 05:53:59 PM 35.7803 -101.6942 134° Southeast 457 526 37,000  Level Albuquerque Center
Tue 05:55:01 PM 35.6917 -101.5811 134° Southeast 458 527 37,000  Level Albuquerque Center
Tue 05:56:02 PM 35.6028 -101.4664 134° Southeast 459 528 37,000  Level Albuquerque Center
Tue 05:57:04 PM 35.5128 -101.3519 134° Southeast 461 531 37,000  Level Albuquerque Center
Tue 05:58:06 PM 35.4222 -101.2364 134° Southeast 464 534 37,000  Level Albuquerque Center
Tue 05:59:08 PM 35.3308 -101.1222 134° Southeast 465 535 37,000  Level Albuquerque Center
Tue 06:00:10 PM 35.2386 -101.0069 134° Southeast 470 541 37,000  Level Albuquerque Center
Tue 06:01:12 PM 35.1467 -100.8908 134° Southeast 472 543 37,000  Level Albuquerque Center
Tue 06:02:13 PM 35.0350 -100.7514 134° Southeast 476 548 37,000  Level Albuquerque Center
Tue 06:03:15 PM 34.9422 -100.6364 135° Southeast 476 548 37,000  Level Albuquerque Center
Tue 06:04:17 PM 34.8489 -100.5231 135° Southeast 475 547 37,000  Level Albuquerque Center
Tue 06:05:19 PM 34.7575 -100.4086 134° Southeast 473 544 37,000  Level Albuquerque Center
Tue 06:06:21 PM 34.6564 -100.2853 135° Southeast 473 544 37,000  Level Albuquerque Center
Tue 06:07:23 PM 34.5733 -100.1825 134° Southeast 470 541 37,000  Level Albuquerque Center
Tue 06:08:21 PM 34.4808 -100.0714 135° Southeast 468 539 37,000  Level Fort Worth Center
Tue 06:09:21 PM 34.3894 -99.9603 135° Southeast 468 539 37,000  Level Fort Worth Center
Tue 06:10:21 PM 34.2917 -99.8417 135° Southeast 468 539 37,000  Level Fort Worth Center
Tue 06:11:21 PM 34.1997 -99.7311 135° Southeast 463 533 37,000  Level Fort Worth Center
Tue 06:12:21 PM 34.1100 -99.6208 134° Southeast 463 533 37,000  Level Fort Worth Center
Tue 06:13:21 PM 34.0200 -99.5133 135° Southeast 463 533 37,000  Level Fort Worth Center
Tue 06:14:21 PM 33.9281 -99.4011 135° Southeast 463 533 37,000  Level Fort Worth Center
Tue 06:15:21 PM 33.8336 -99.2889 135° Southeast 463 533 37,000  Level Fort Worth Center
Tue 06:16:21 PM 33.7433 -99.1819 135° Southeast 468 539 37,000  Level Fort Worth Center
Tue 06:17:21 PM 33.6511 -99.0728 135° Southeast 468 539 37,000  Level Fort Worth Center
Tue 06:18:21 PM 33.5564 -98.9664 137° Southeast 468 539 37,000  Level Fort Worth Center
Tue 06:19:21 PM 33.4597 -98.8478 134° Southeast 483 556 37,000  Level Fort Worth Center
Tue 06:20:21 PM 33.3650 -98.7367 136° Southeast 477 549 37,000  Level Fort Worth Center
Tue 06:21:21 PM 33.2700 -98.6258 136° Southeast 477 549 37,000  Level Fort Worth Center
Tue 06:22:21 PM 33.1750 -98.5153 136° Southeast 477 549 37,000  Level Fort Worth Center
Tue 06:23:21 PM 33.0922 -98.4200 136° Southeast 472 543 37,000  Level Fort Worth Center
Tue 06:24:21 PM 32.9992 -98.3125 136° Southeast 472 543 37,000  Level Fort Worth Center
Tue 06:25:21 PM 32.9019 -98.2028 137° Southeast 472 543 37,000  Level Fort Worth Center
Tue 06:26:21 PM 32.8064 -98.0931 136° Southeast 472 543 37,000  Level Fort Worth Center
Tue 06:27:21 PM 32.7111 -97.9764 134° Southeast 478 550 37,000  Level Fort Worth Center
Tue 06:28:21 PM 32.6156 -97.8647 135° Southeast 478 550 37,000  Level Fort Worth Center
Tue 06:29:21 PM 32.5219 -97.7486 134° Southeast 483 556 37,000  Level Fort Worth Center
Tue 06:30:21 PM 32.4261 -97.6300 134° Southeast 488 562 37,000  Level Fort Worth Center
Tue 06:31:21 PM 32.3322 -97.5117 133° Southeast 488 562 37,000  Level Fort Worth Center
Tue 06:32:21 PM 32.2364 -97.3914 133° Southeast 493 567 37,000  Level Fort Worth Center
Tue 06:33:21 PM 32.1403 -97.2736 134° Southeast 493 567 37,000  Level Fort Worth Center
Tue 06:34:21 PM 32.0461 -97.1608 135° Southeast 493 567 37,000  Level Fort Worth Center
Tue 06:35:21 PM 31.9539 -97.0386 132° Southeast 493 567 37,000  Level Fort Worth Center
Tue 06:36:21 PM 31.8617 -96.9242 133° Southeast 486 559 37,000 -1,145 Level Fort Worth Center
Tue 06:37:32 PM 31.7500 -96.7911 135° Southeast 486 559 34,500 -2,301 Descending Houston Center
Tue 06:38:34 PM 31.6531 -96.6742 134° Southeast 491 565 31,900 -2,468 Descending Houston Center
Tue 06:39:36 PM 31.5378 -96.5369 135° Southeast 498 573 29,400 -1,403 Descending Houston Center
Tue 06:40:38 PM 31.4231 -96.4664 152° Southeast 464 534 29,000 -1,065 Descending Houston Center
Tue 06:41:40 PM 31.3125 -96.3917 150° Southeast 453 521 27,200 -2,341 Descending Houston Center
Tue 06:42:41 PM 31.2011 -96.3225 152° Southeast 448 516 24,200 -2,683 Descending Houston Center
Tue 06:43:43 PM 31.0900 -96.2536 152° Southeast 446 513 21,700 -2,274 Descending Houston Center
Tue 06:44:45 PM 30.9831 -96.1892 153° Southeast 432 497 19,500 -2,032 Descending Houston Center
Tue 06:45:47 PM 30.8817 -96.1256 152° Southeast 414 476 17,500 -1,984 Descending Houston Center
Tue 06:46:49 PM 30.7836 -96.0647 152° Southeast 398 458 15,400 -2,032 Descending Houston Center
Tue 06:47:51 PM 30.6817 -96.0019 152° Southeast 395 455 13,300 -2,213 Descending Houston Center
Tue 06:48:51 PM 30.5753 -95.9386 153° Southeast 383 441 10,900 -1,935 Descending Houston Center
Tue 06:48:53 PM 30.5931 -95.9478 336° Northwest 391 450 11,300 -871 Climbing Houston Center
Tue 06:49:53 PM 30.4864 -95.8833 152° Southeast 351 404 10,000 -1,258 Descending Houston Center
Tue 06:49:55 PM 30.4864 -95.8828 90° East 360 414 10,000 -492 Level Houston Center
Tue 06:50:54 PM 30.4053 -95.8444 158° South 284 327 9,500 -484 Descending Houston Center
Tue 06:50:57 PM 30.4092 -95.8439 North 308 354 9,500 -1,125 Level Houston Center
Tue 06:51:58 PM 30.3369 -95.8150 161° South 279 321 8,300 -1,158 Descending Houston Center
Tue 06:52:51 PM 30.2647 -95.7953 167° South 258 297 7,300 -1,065 Descending Houston Center
Tue 06:53:00 PM 30.2642 -95.7956 203° Southwest 271 312 7,200 -1,352 Descending Houston Center
Tue 06:54:02 PM 30.1961 -95.7839 172° South 250 288 5,700 -1,684 Descending Houston Center
Tue 06:54:54 PM 30.1303 -95.7483 155° Southeast 262 302 4,000 -1,645 Descending Houston Center
Tue 06:55:04 PM 30.1308 -95.7481 23° Northeast 259 298 4,000 -984 Level Houston Center
Tue 06:55:55 PM 30.0625 -95.7153 157° South 251 289 3,000 -968 Descending Houston Center
Tue 06:56:06 PM 30.0547 -95.7089 145° Southeast 252 290 3,000  Level Houston Center
Tue 06:56:50 PM 30.0303 -95.6611 121° Southeast 222 255 3,000  Level Houston Center
Tue 06:57:08 PM 30.0286 -95.6447 97° East 227 261 3,000  Level Houston Center
Tue 06:57:57 PM 30.0172 -95.5853 102° East 213 245 3,000  Level Houston Center
Tue 06:58:10 PM 30.0158 -95.5769 101° East 218 251 3,000 -197 Level Houston Center
Tue 06:58:58 PM 30.0050 -95.5192 102° East 211 243 2,800 -290 Descending Houston Center
Tue 06:59:12 PM 30.0058 -95.5103 84° East 213 245 2,700 -1,082 Descending Houston Center
Tue 06:59:59 PM 30.0056 -95.4564 90° East 177 204 1,700 -968 Descending Houston Center
Tue 07:00:14 PM 30.0081 -95.4517 59° Northeast 194 223 1,700 -677 Level Houston Center
Tue 07:01:01 PM 30.0078 -95.4103 90° East 134 154 1,000 -787 Descending Houston Center
Tue 07:01:15 PM 30.0094 -95.4069 60° Northeast 164 189 900 -787 Descending Houston Center
Tue 07:02:02 PM 30.0058 -95.3672 96° East 135 155 200 -484 Descending Houston Center
Tue 07:02:17 PM 30.0081 -95.3619 64° Northeast 147 169 400 800 Climbing Houston Center

Login

Don't have an account? Register now (free) for customized features, flight alerts, and more!